Colbrook, Connecticut
Current Conditions -  °F | °C
As of 10:53 PM on Sunday 25 Jan 2015 (Local Time) from KBAF Reporting Station
Clear Clear  
Wind Chill: -11°   Ceiling: Unl
Heat Index: -11°   Visibility: 10mi
Dew Point: -17°   Wind: 3mph
Humidity: 59%   Direction: 170°S
Pressure: 30.03"   Gusts: NA
Location:  42.0286°N, 73.1037°W
Report Text: KBAF 260353Z 17003KT 10SM CLR M11/M17 A3003 RMK AO2 PRESRR SLP176 T11061172
Loading
Personal Weather Stations






























Interactive Weather Map New forecast layout! Learn more

10-Day Weather Forecast

Advertisements
Track Severe Weather on mobile